Sunday, April 20, 2014, 4:57 PM EDT

KOKV, Winchester Regional

Location: Winchester, VA, United States Lat: 39.15
Local Time: 4:57 PM EDT (20:57 GMT) Lon: -78.15
Time Zone: US/Eastern Elev: 728 ft

Show me the last for .
Show Decoded

2014-04-20 16:35 METAR KOKV 202035Z AUTO 12008KT 10SM CLR 17/00 A3031 RMK AO2 =
2014-04-20 16:15 METAR KOKV 202015Z AUTO 09004KT 10SM CLR 17/00 A3032 RMK AO2 =
2014-04-20 15:55 METAR KOKV 201955Z AUTO 08006KT 10SM CLR 17/00 A3032 RMK AO2 =
2014-04-20 15:35 METAR KOKV 201935Z AUTO 06004KT 10SM CLR 17/02 A3033 RMK AO2 =
2014-04-20 15:15 METAR KOKV 201915Z AUTO 13004KT 10SM CLR 17/01 A3033 RMK AO2 =
2014-04-20 14:55 METAR KOKV 201855Z AUTO 14005KT 10SM CLR 18/01 A3034 RMK AO2 =
2014-04-20 14:35 METAR KOKV 201835Z AUTO 11005KT 10SM CLR 17/01 A3035 RMK AO2 =
2014-04-20 14:15 METAR KOKV 201815Z AUTO 08006KT 10SM CLR 17/01 A3035 RMK AO2 =
2014-04-20 13:55 METAR KOKV 201755Z AUTO 10004KT 10SM CLR 17/00 A3037 RMK AO2 =
2014-04-20 13:35 METAR KOKV 201735Z AUTO 07005KT 10SM CLR 16/00 A3037 RMK AO2 =
2014-04-20 13:15 METAR KOKV 201715Z AUTO 06004KT 10SM CLR 16/00 A3037 RMK AO2 =
2014-04-20 12:55 METAR KOKV 201655Z AUTO 08006KT 10SM CLR 16/00 A3039 RMK AO2 =
2014-04-20 12:35 METAR KOKV 201635Z AUTO 09005KT 10SM CLR 16/00 A3040 RMK AO2 =
2014-04-20 12:15 METAR KOKV 201615Z AUTO 13006KT 110V180 10SM CLR 15/00 A3040 RMK AO2 =
2014-04-20 11:55 METAR KOKV 201555Z AUTO 13009KT 080V150 10SM CLR 15/00 A3042 RMK AO2 =
2014-04-20 11:35 METAR KOKV 201535Z AUTO 08007KT 10SM CLR 14/00 A3042 RMK AO2 =
2014-04-20 11:15 METAR KOKV 201515Z AUTO 13008KT 10SM CLR 15/00 A3042 RMK AO2 =
2014-04-20 10:55 METAR KOKV 201455Z AUTO 08007KT 10SM CLR 13/00 A3042 RMK AO2 =
2014-04-20 10:35 METAR KOKV 201435Z AUTO 12007KT 10SM CLR 13/M01 A3042 RMK AO2 =
2014-04-20 10:15 METAR KOKV 201415Z AUTO 09006KT 10SM CLR 13/M01 A3041 RMK AO2 =
2014-04-20 09:55 METAR KOKV 201355Z AUTO 09004KT 10SM CLR 12/M01 A3041 RMK AO2 =
2014-04-20 09:35 METAR KOKV 201335Z AUTO 02003KT 10SM CLR 11/00 A3040 RMK AO2 =
2014-04-20 09:15 METAR KOKV 201315Z AUTO 05003KT 10SM CLR 11/00 A3039 RMK AO2 =
2014-04-20 08:55 METAR KOKV 201255Z AUTO 05004KT 10SM CLR 09/M01 A3039 RMK AO2 =
2014-04-20 08:35 METAR KOKV 201235Z AUTO 03004KT 10SM CLR 09/M01 A3039 RMK AO2 =
2014-04-20 08:15 METAR KOKV 201215Z AUTO 04003KT 10SM CLR 08/M01 A3039 RMK AO2 =
2014-04-20 07:55 METAR KOKV 201155Z AUTO 00000KT 10SM CLR 08/M02 A3038 RMK AO2 =
2014-04-20 07:35 METAR KOKV 201135Z AUTO 35003KT 10SM CLR 07/M02 A3038 RMK AO2 =
2014-04-20 07:15 METAR KOKV 201115Z AUTO 00000KT 10SM CLR 07/M03 A3038 RMK AO2 =
2014-04-20 06:55 METAR KOKV 201055Z AUTO 00000KT 10SM CLR 07/M03 A3037 RMK AO2 =
2014-04-20 06:35 METAR KOKV 201035Z AUTO 00000KT 10SM CLR 07/M03 A3036 RMK AO2 =
2014-04-20 06:15 METAR KOKV 201015Z AUTO 36003KT 10SM CLR 07/M03 A3035 RMK AO2 =
2014-04-20 05:55 METAR KOKV 200955Z AUTO 00000KT 10SM CLR 07/M03 A3035 RMK AO2 =
2014-04-20 05:35 METAR KOKV 200935Z AUTO 35003KT 10SM CLR 06/M02 A3035 RMK AO2 =
2014-04-20 05:15 METAR KOKV 200915Z AUTO 00000KT 10SM CLR 06/M02 A3034 RMK AO2 =
2014-04-20 04:55 METAR KOKV 200855Z AUTO 00000KT 10SM CLR 07/M02 A3034 RMK AO2 LTG DSNT S =
2014-04-20 04:35 METAR KOKV 200835Z AUTO 00000KT 10SM CLR 08/M02 A3034 RMK AO2 =
2014-04-20 04:15 METAR KOKV 200815Z AUTO 00000KT 10SM CLR 08/M02 A3033 RMK AO2 =
2014-04-20 03:55 METAR KOKV 200755Z AUTO 00000KT 10SM CLR 08/M02 A3033 RMK AO2 =
2014-04-20 03:35 METAR KOKV 200735Z AUTO 00000KT 10SM CLR 08/M02 A3032 RMK AO2 =
2014-04-20 03:15 METAR KOKV 200715Z AUTO 36003KT 10SM CLR 08/M02 A3032 RMK AO2 =
2014-04-20 02:55 METAR KOKV 200655Z AUTO 00000KT 10SM CLR 08/M02 A3032 RMK AO2 =
2014-04-20 02:35 METAR KOKV 200635Z AUTO 00000KT 10SM CLR 08/M02 A3032 RMK AO2 =
2014-04-20 02:15 METAR KOKV 200615Z AUTO 00000KT 10SM CLR 08/M01 A3032 RMK AO2 =
2014-04-20 01:55 METAR KOKV 200555Z AUTO 00000KT 10SM CLR 09/M02 A3032 RMK AO2 =
2014-04-20 01:35 METAR KOKV 200535Z AUTO 00000KT 10SM CLR 09/M02 A3032 RMK AO2 =
2014-04-20 01:15 METAR KOKV 200515Z AUTO 35003KT 10SM CLR 09/M01 A3032 RMK AO2 =
2014-04-20 00:55 METAR KOKV 200455Z AUTO 34003KT 10SM CLR 08/M01 A3032 RMK AO2 =
2014-04-20 00:35 METAR KOKV 200435Z AUTO 00000KT 10SM CLR 09/00 A3032 RMK AO2 =
2014-04-20 00:15 METAR KOKV 200415Z AUTO 00000KT 10SM CLR 08/00 A3032 RMK AO2 =
2014-04-19 23:55 METAR KOKV 200355Z AUTO 33003KT 10SM CLR 08/00 A3031 RMK AO2 =
2014-04-19 23:35 METAR KOKV 200335Z AUTO 34003KT 10SM CLR 08/00 A3031 RMK AO2 =
2014-04-19 23:15 METAR KOKV 200315Z AUTO 35003KT 10SM CLR 09/00 A3031 RMK AO2 =
2014-04-19 22:55 METAR KOKV 200255Z AUTO 00000KT 10SM CLR 08/00 A3030 RMK AO2 =
2014-04-19 22:35 METAR KOKV 200235Z AUTO 00000KT 10SM CLR 10/00 A3031 RMK AO2 =
2014-04-19 22:15 METAR KOKV 200215Z AUTO 00000KT 10SM CLR 10/00 A3030 RMK AO2 =
2014-04-19 21:55 METAR KOKV 200155Z AUTO 00000KT 10SM CLR 11/00 A3030 RMK AO2 =
2014-04-19 21:35 METAR KOKV 200135Z AUTO 00000KT 10SM CLR 12/00 A3030 RMK AO2 =
2014-04-19 21:15 METAR KOKV 200115Z AUTO 00000KT 10SM CLR 12/00 A3028 RMK AO2 =
2014-04-19 20:55 METAR KOKV 200055Z AUTO 00000KT 10SM CLR 13/00 A3027 RMK AO2 =
2014-04-19 20:35 METAR KOKV 200035Z AUTO 07003KT 10SM CLR 15/00 A3027 RMK AO2 =
2014-04-19 20:15 METAR KOKV 200015Z AUTO 00000KT 10SM CLR 15/00 A3026 RMK AO2 =
2014-04-19 19:55 METAR KOKV 192355Z AUTO 05003KT 10SM CLR 16/00 A3025 RMK AO2 =
2014-04-19 19:35 METAR KOKV 192335Z AUTO 00000KT 10SM CLR 16/M01 A3025 RMK AO2 =
2014-04-19 19:15 METAR KOKV 192315Z AUTO 00000KT 10SM CLR 17/M01 A3025 RMK AO2 =
2014-04-19 18:55 METAR KOKV 192255Z AUTO 06004KT 10SM CLR 17/M01 A3025 RMK AO2 =
2014-04-19 18:35 METAR KOKV 192235Z AUTO 05004KT 10SM CLR 17/M01 A3025 RMK AO2 =
2014-04-19 18:15 METAR KOKV 192215Z AUTO 05006KT 10SM CLR 18/00 A3024 RMK AO2 =
2014-04-19 17:55 METAR KOKV 192155Z AUTO 00000KT 10SM CLR 18/00 A3024 RMK AO2 =
2014-04-19 17:35 METAR KOKV 192135Z AUTO 08008KT 10SM CLR 18/00 A3025 RMK AO2 =
2014-04-19 17:15 METAR KOKV 192115Z AUTO 06005KT 10SM CLR 18/00 A3024 RMK AO2 =

Support USWX by starting your Amazon purchase here.